createdAt,value
2018-12-20T00:01:40.313Z,97965.27
2018-12-20T00:05:44.472Z,97968.41
2018-12-20T00:09:48.628Z,97964.32
2018-12-20T00:13:54.052Z,97964.73
2018-12-20T00:17:58.210Z,97965.87
2018-12-20T00:22:02.362Z,97965.20
2018-12-20T00:26:06.650Z,97961.10
2018-12-20T00:30:10.726Z,97963.14
2018-12-20T00:34:14.798Z,97976.22
2018-12-20T00:38:18.996Z,97964.30
2018-12-20T00:42:23.092Z,97967.80
2018-12-20T00:46:27.658Z,97966.20
2018-12-20T00:50:31.901Z,97964.74
2018-12-20T00:54:36.773Z,97978.80
2018-12-20T00:58:40.862Z,97979.90
2018-12-20T01:02:44.956Z,97983.84
2018-12-20T01:06:49.326Z,97974.25
2018-12-20T01:10:53.423Z,97977.44
2018-12-20T01:14:57.711Z,97985.45
2018-12-20T01:19:02.053Z,97987.59
2018-12-20T01:23:06.121Z,97991.12
2018-12-20T01:27:10.260Z,98001.34
2018-12-20T01:31:14.401Z,98020.42
2018-12-20T01:35:18.518Z,98012.44
2018-12-20T01:39:22.704Z,98009.97
2018-12-20T01:43:26.931Z,98004.55
2018-12-20T01:47:31.975Z,98014.50
2018-12-20T01:51:36.098Z,98008.74
2018-12-20T01:55:40.299Z,98006.54
2018-12-20T01:59:44.675Z,98016.20
2018-12-20T02:03:49.562Z,98009.56
2018-12-20T02:07:53.700Z,98021.30
2018-12-20T02:11:57.890Z,98019.65
2018-12-20T02:16:01.961Z,98021.38
2018-12-20T02:20:06.276Z,98019.47
2018-12-20T02:24:11.230Z,98022.17
2018-12-20T02:28:15.507Z,98020.88
2018-12-20T02:32:19.740Z,98028.56
2018-12-20T02:36:24.067Z,98024.31
2018-12-20T02:40:28.328Z,98031.54
2018-12-20T02:44:32.446Z,98035.07
2018-12-20T02:48:36.743Z,98021.25
2018-12-20T02:52:41.135Z,98020.81
2018-12-20T02:56:45.411Z,98025.36
2018-12-20T03:00:49.607Z,98015.42
2018-12-20T03:04:53.849Z,98017.54
2018-12-20T03:08:58.136Z,98018.58
2018-12-20T03:13:02.666Z,98025.41
2018-12-20T03:17:07.316Z,98025.48
2018-12-20T03:21:11.686Z,98010.86
2018-12-20T03:25:15.861Z,98001.25
2018-12-20T03:29:19.938Z,98008.77
2018-12-20T03:33:24.427Z,98004.04
2018-12-20T03:37:28.723Z,97994.48
2018-12-20T03:41:33.093Z,97998.64
2018-12-20T03:45:37.362Z,98001.75
2018-12-20T03:49:41.638Z,98004.84
2018-12-20T03:53:45.809Z,98012.33
2018-12-20T03:57:50.071Z,98006.37
2018-12-20T04:01:54.497Z,98019.88
2018-12-20T04:05:58.819Z,98005.98
2018-12-20T04:10:03.285Z,98019.47
2018-12-20T04:14:07.510Z,98020.25
2018-12-20T04:18:11.646Z,98014.63
2018-12-20T04:22:15.978Z,98016.14
2018-12-20T04:26:20.384Z,98033.34
2018-12-20T04:30:24.808Z,98033.34
2018-12-20T04:34:29.049Z,98039.90
2018-12-20T04:38:33.322Z,98039.66
2018-12-20T04:42:37.633Z,98046.59
2018-12-20T04:46:41.726Z,98047.94
2018-12-20T04:50:46.336Z,98053.34
2018-12-20T04:54:50.397Z,98052.38
2018-12-20T04:58:54.638Z,98057.98
2018-12-20T05:02:58.954Z,98052.38
2018-12-20T05:07:03.365Z,98058.39
2018-12-20T05:11:07.518Z,98068.59
2018-12-20T05:15:12.128Z,98062.95
2018-12-20T05:19:16.325Z,98065.48
2018-12-20T05:23:20.629Z,98066.62
2018-12-20T05:27:25.416Z,98071.07
2018-12-20T05:31:29.526Z,98069.17
2018-12-20T05:35:33.627Z,98066.22
2018-12-20T05:39:37.753Z,98071.13
2018-12-20T05:43:41.933Z,98076.19
2018-12-20T05:47:46.057Z,98066.34
2018-12-20T05:51:50.362Z,98087.56
2018-12-20T05:55:54.770Z,98088.78
2018-12-20T05:59:59.203Z,98090.11
2018-12-20T06:04:03.403Z,98093.98
2018-12-20T06:08:07.594Z,98089.53
2018-12-20T06:12:12.058Z,98089.91
2018-12-20T06:16:16.385Z,98092.17
2018-12-20T06:20:20.716Z,98096.44
2018-12-20T06:24:25.692Z,98102.59
2018-12-20T06:28:29.821Z,98104.19
2018-12-20T06:32:33.933Z,98110.54
2018-12-20T06:36:38.039Z,98109.55
2018-12-20T06:40:42.117Z,98121.78
2018-12-20T06:44:46.920Z,98123.00
2018-12-20T06:48:51.049Z,98123.95
2018-12-20T06:52:55.148Z,98124.80
2018-12-20T06:56:59.296Z,98117.17
2018-12-20T07:01:03.453Z,98127.55
2018-12-20T07:05:07.642Z,98133.67
2018-12-20T07:09:11.754Z,98127.08
2018-12-20T07:13:15.827Z,98136.45
2018-12-20T07:17:20.007Z,98139.89
2018-12-20T07:21:24.109Z,98132.36
2018-12-20T07:25:28.268Z,98132.34
2018-12-20T07:29:32.370Z,98136.64
2018-12-20T07:33:36.472Z,98141.20
2018-12-20T07:37:40.601Z,98146.53
2018-12-20T07:41:44.734Z,98150.92
2018-12-20T07:45:48.893Z,98157.95
2018-12-20T07:49:52.998Z,98161.08
2018-12-20T07:53:57.106Z,98157.73
2018-12-20T07:58:01.246Z,98172.01
2018-12-20T08:02:05.341Z,98167.39
2018-12-20T08:06:09.414Z,98176.45
2018-12-20T08:10:14.839Z,98182.50
2018-12-20T08:14:19.074Z,98184.28
2018-12-20T08:18:24.025Z,98194.81
2018-12-20T08:22:28.119Z,98197.00
2018-12-20T08:26:32.349Z,98194.46
2018-12-20T08:30:36.466Z,98199.98
2018-12-20T08:34:40.577Z,98203.80
2018-12-20T08:38:44.662Z,98198.92
2018-12-20T08:42:48.759Z,98200.63
2018-12-20T08:46:54.507Z,98199.29
2018-12-20T08:50:59.671Z,98203.91
2018-12-20T08:55:05.345Z,98215.38
2018-12-20T08:59:09.433Z,98218.30
2018-12-20T09:03:13.530Z,98221.56
2018-12-20T09:07:17.625Z,98229.59
2018-12-20T09:11:22.107Z,98217.92
2018-12-20T09:15:26.261Z,98216.71
2018-12-20T09:19:30.340Z,98210.43
2018-12-20T09:23:34.446Z,98215.45
2018-12-20T09:27:38.525Z,98223.03
2018-12-20T09:31:42.673Z,98222.92
2018-12-20T09:35:46.753Z,98211.68
2018-12-20T09:39:50.829Z,98209.94
2018-12-20T09:43:54.926Z,98216.61
2018-12-20T09:48:04.338Z,98215.43
2018-12-20T09:52:08.445Z,98213.57
2018-12-20T09:56:12.684Z,98215.19
2018-12-20T10:00:16.773Z,98208.70
2018-12-20T10:04:20.848Z,98203.17
2018-12-20T10:08:24.919Z,98201.03
2018-12-20T10:12:29.013Z,98200.52
2018-12-20T10:16:33.743Z,98208.87
2018-12-20T10:20:37.829Z,98209.95
2018-12-20T10:24:42.268Z,98219.58
2018-12-20T10:28:46.672Z,98195.77
2018-12-20T10:32:50.766Z,98196.36
2018-12-20T10:36:54.975Z,98197.19
2018-12-20T10:40:59.061Z,98193.78
2018-12-20T10:45:03.209Z,98191.75
2018-12-20T10:49:07.459Z,98192.41
2018-12-20T10:53:11.537Z,98191.60
2018-12-20T10:57:15.698Z,98191.51
2018-12-20T11:01:25.253Z,98185.81
2018-12-20T11:05:35.000Z,98185.23
2018-12-20T11:09:44.529Z,98185.09
2018-12-20T11:13:55.349Z,98181.61
2018-12-20T11:17:59.429Z,98187.83
2018-12-20T11:22:03.625Z,98204.34
2018-12-20T11:26:07.697Z,98193.08
2018-12-20T11:30:11.964Z,98190.33
2018-12-20T11:34:16.079Z,98177.58
2018-12-20T11:38:20.210Z,98172.91
2018-12-20T11:42:24.334Z,98159.25
2018-12-20T11:46:28.505Z,98152.64
2018-12-20T11:50:32.589Z,98152.38
2018-12-20T11:54:36.662Z,98146.45
2018-12-20T11:58:40.743Z,98139.41
2018-12-20T12:02:44.976Z,98135.20
2018-12-20T12:06:49.076Z,98129.81
2018-12-20T12:10:53.189Z,98134.70
2018-12-20T12:14:57.277Z,98132.14
2018-12-20T12:19:01.448Z,98138.10
2018-12-20T12:23:05.578Z,98131.48
2018-12-20T12:27:09.672Z,98142.36
2018-12-20T12:31:13.756Z,98150.72
2018-12-20T12:35:17.955Z,98149.23
2018-12-20T12:39:22.062Z,98151.14
2018-12-20T12:43:26.145Z,98159.24
2018-12-20T12:47:35.701Z,98150.66
2018-12-20T12:51:39.790Z,98157.79
2018-12-20T12:55:43.879Z,98156.70
2018-12-20T12:59:48.101Z,98159.82
2018-12-20T13:03:52.229Z,98160.56
2018-12-20T13:07:56.312Z,98160.93
2018-12-20T13:12:00.417Z,98157.64
2018-12-20T13:16:04.883Z,98157.58
2018-12-20T13:20:10.124Z,98156.61
2018-12-20T13:24:14.355Z,98159.73
2018-12-20T13:28:18.583Z,98155.19
2018-12-20T13:32:22.808Z,98163.81
2018-12-20T13:36:26.876Z,98159.95
2018-12-20T13:40:30.967Z,98157.59
2018-12-20T13:44:35.053Z,98165.28
2018-12-20T13:48:39.290Z,98174.09
2018-12-20T13:52:43.391Z,98180.14
2018-12-20T13:56:47.544Z,98180.75
2018-12-20T14:00:52.887Z,98178.86
2018-12-20T14:04:56.993Z,98185.70
2018-12-20T14:09:01.368Z,98187.05
2018-12-20T14:13:05.724Z,98193.84
2018-12-20T14:17:09.849Z,98192.19
2018-12-20T14:21:14.113Z,98201.03
2018-12-20T14:25:18.209Z,98196.29
2018-12-20T14:29:22.375Z,98201.03
2018-12-20T14:33:26.455Z,98209.59
2018-12-20T14:37:30.546Z,98209.45
2018-12-20T14:41:34.649Z,98207.59
2018-12-20T14:45:38.735Z,98220.34
2018-12-20T14:49:42.891Z,98226.98
2018-12-20T14:53:47.047Z,98223.24
2018-12-20T14:57:52.102Z,98224.59
2018-12-20T15:01:56.265Z,98220.27
2018-12-20T15:06:00.362Z,98223.24
2018-12-20T15:10:07.841Z,98219.45
2018-12-20T15:14:11.929Z,98214.56
2018-12-20T15:18:16.031Z,98222.25
2018-12-20T15:22:20.184Z,98229.20
2018-12-20T15:26:24.250Z,98230.61
2018-12-20T15:30:28.401Z,98237.56
2018-12-20T15:34:32.480Z,98240.48
2018-12-20T15:38:36.560Z,98239.81
2018-12-20T15:42:40.770Z,98240.11
2018-12-20T15:46:45.009Z,98237.11
2018-12-20T15:50:49.112Z,98235.67
2018-12-20T15:54:53.192Z,98229.84
2018-12-20T15:58:57.307Z,98234.94
2018-12-20T16:03:01.348Z,98234.02
2018-12-20T16:07:05.563Z,98242.59
2018-12-20T16:11:09.657Z,98232.57
2018-12-20T16:15:13.726Z,98245.23
2018-12-20T16:19:17.836Z,98251.55
2018-12-20T16:23:21.909Z,98264.92
2018-12-20T16:27:27.014Z,98260.92
2018-12-20T16:31:31.633Z,98276.91
2018-12-20T16:35:35.713Z,98274.47
2018-12-20T16:39:39.853Z,98272.08
2018-12-20T16:43:43.910Z,98274.73
2018-12-20T16:47:48.116Z,98268.80
2018-12-20T16:51:52.305Z,98275.82
2018-12-20T16:55:56.466Z,98279.51
2018-12-20T17:00:00.636Z,98281.55
2018-12-20T17:04:04.721Z,98281.06
2018-12-20T17:08:08.886Z,98289.09
2018-12-20T17:12:14.030Z,98297.36
2018-12-20T17:16:18.106Z,98295.42
2018-12-20T17:20:22.190Z,98290.36
2018-12-20T17:24:26.269Z,98299.92
2018-12-20T17:28:30.371Z,98303.47
2018-12-20T17:32:34.489Z,98313.02
2018-12-20T17:36:38.652Z,98317.66
2018-12-20T17:40:42.733Z,98309.44
2018-12-20T17:44:46.889Z,98320.12
2018-12-20T17:48:51.016Z,98327.56
2018-12-20T17:52:55.100Z,98331.07
2018-12-20T17:56:59.264Z,98337.73
2018-12-20T18:01:03.417Z,98337.73
2018-12-20T18:05:07.621Z,98342.74
2018-12-20T18:09:12.265Z,98339.27
2018-12-20T18:13:16.349Z,98349.41
2018-12-20T18:17:21.599Z,98356.19
2018-12-20T18:21:25.663Z,98358.44
2018-12-20T18:25:29.773Z,98360.13
2018-12-20T18:29:35.426Z,98350.65
2018-12-20T18:33:39.583Z,98363.86
2018-12-20T18:37:43.642Z,98354.89
2018-12-20T18:41:47.749Z,98354.17
2018-12-20T18:45:51.906Z,98357.37
2018-12-20T18:49:56.019Z,98354.59
2018-12-20T18:54:00.262Z,98365.25
2018-12-20T18:58:04.362Z,98368.44
2018-12-20T19:02:09.485Z,98365.26
2018-12-20T19:06:13.566Z,98364.83
2018-12-20T19:10:18.881Z,98358.47
2018-12-20T19:14:23.028Z,98366.39
2018-12-20T19:18:27.348Z,98359.59
2018-12-20T19:22:31.456Z,98368.28
2018-12-20T19:26:35.604Z,98374.05
2018-12-20T19:30:39.728Z,98373.48
2018-12-20T19:34:43.782Z,98366.84
2018-12-20T19:38:48.012Z,98380.81
2018-12-20T19:42:52.106Z,98384.40
2018-12-20T19:46:56.938Z,98387.31
2018-12-20T19:51:01.004Z,98394.89
2018-12-20T19:55:06.236Z,98389.23
2018-12-20T19:59:10.333Z,98385.60
2018-12-20T20:03:14.417Z,98379.66
2018-12-20T20:07:18.589Z,98376.70
2018-12-20T20:11:22.963Z,98373.31
2018-12-20T20:15:27.146Z,98380.89
2018-12-20T20:19:31.239Z,98382.24
2018-12-20T20:23:35.360Z,98394.61
2018-12-20T20:27:39.443Z,98380.39
2018-12-20T20:31:43.657Z,98375.05
2018-12-20T20:35:47.829Z,98374.62
2018-12-20T20:39:51.930Z,98381.89
2018-12-20T20:43:56.027Z,98376.53
2018-12-20T20:48:00.929Z,98385.09
2018-12-20T20:52:04.989Z,98376.96
2018-12-20T20:56:09.104Z,98372.20
2018-12-20T21:00:13.903Z,98378.77
2018-12-20T21:04:18.077Z,98381.09
2018-12-20T21:08:23.364Z,98381.75
2018-12-20T21:12:27.534Z,98384.03
2018-12-20T21:16:31.629Z,98390.94
2018-12-20T21:20:35.716Z,98392.39
2018-12-20T21:24:39.859Z,98385.59
2018-12-20T21:28:44.948Z,98388.42
2018-12-20T21:32:49.004Z,98391.59
2018-12-20T21:36:53.126Z,98397.01
2018-12-20T21:40:57.413Z,98395.74
2018-12-20T21:45:01.475Z,98394.50
2018-12-20T21:49:05.551Z,98385.89
2018-12-20T21:53:09.645Z,98379.67
2018-12-20T21:57:13.734Z,98386.76
2018-12-20T22:01:17.827Z,98386.61
2018-12-20T22:05:21.893Z,98395.94
2018-12-20T22:09:47.645Z,98392.91
2018-12-20T22:18:47.765Z,98394.79
2018-12-20T22:22:51.870Z,98393.92
2018-12-20T22:31:48.447Z,98397.84
2018-12-20T22:35:53.541Z,98394.59
2018-12-20T22:39:58.644Z,98387.23
2018-12-20T22:44:02.859Z,98373.72
2018-12-20T22:48:07.010Z,98365.95
2018-12-20T22:52:11.152Z,98375.20
2018-12-20T22:56:15.262Z,98365.88
2018-12-20T23:00:19.435Z,98363.84
2018-12-20T23:04:23.582Z,98362.13
2018-12-20T23:08:27.682Z,98365.89
2018-12-20T23:12:31.741Z,98369.48
2018-12-20T23:16:35.825Z,98381.86
2018-12-20T23:20:39.944Z,98381.22
2018-12-20T23:24:44.013Z,98382.00
2018-12-20T23:28:48.228Z,98369.91
2018-12-20T23:32:52.321Z,98367.38
2018-12-20T23:36:56.500Z,98369.88
2018-12-20T23:41:00.597Z,98354.95
2018-12-20T23:45:05.898Z,98352.14
2018-12-20T23:49:09.980Z,98352.05
2018-12-20T23:53:14.080Z,98351.16
2018-12-20T23:57:18.158Z,98355.55
